Time;durP1;ratioP1;P1;durP2;ratioP2;P2;SDS_P1;SDS_P2;PMS_P1;PMS_P2;Temp;Humidity;BMP_temperature;BMP_pressure;BME280_temperature;BME280_humidity;BME280_pressure;Samples;Min_cycle;Max_cycle;Signal;HPM_P1;HPM_P2
2022/12/07 00:00:25;;;;;;;;;;;2.50;99.90;;;;;;5090830;28;20380;-76
2022/12/07 00:02:51;;;;;;;;;;;2.60;99.90;;;;;;5091509;28;19912;-76
2022/12/07 00:05:17;;;;;;;;;;;2.60;99.90;;;;;;5090532;28;19912;-75
2022/12/07 00:07:42;;;;;;;;;;;2.60;99.90;;;;;;5090697;28;19912;-76
2022/12/07 00:10:08;;;;;;;;;;;2.60;99.90;;;;;;5089815;28;19934;-77
2022/12/07 00:12:33;;;;;;;;;;;2.60;99.90;;;;;;5089766;28;19931;-77
2022/12/07 00:14:59;;;;;;;;;;;2.70;99.90;;;;;;5089321;28;19912;-76
2022/12/07 00:17:24;;;;;;;;;;;2.70;99.90;;;;;;5088064;28;19920;-75
2022/12/07 00:19:50;;;;;;;;;;;2.80;99.90;;;;;;5089186;28;19929;-75
2022/12/07 00:22:15;;;;;;;;;;;2.70;99.90;;;;;;5090372;28;19912;-75
2022/12/07 00:24:41;;;;;;;;;;;2.70;99.90;;;;;;5089001;28;19912;-75
2022/12/07 00:27:06;;;;;;;;;;;2.80;99.90;;;;;;5090865;28;19912;-76
2022/12/07 00:29:32;;;;;;;;;;;2.80;99.90;;;;;;5091125;28;19908;-76
2022/12/07 00:31:57;;;;;;;;;;;2.80;99.90;;;;;;5091461;28;20288;-76
2022/12/07 00:34:23;;;;;;;;;;;2.90;99.90;;;;;;5088851;28;19955;-76
2022/12/07 00:36:49;;;;;;;;;;;2.80;99.90;;;;;;5090639;28;19960;-76
2022/12/07 00:39:15;;;;;;;;;;;2.90;99.90;;;;;;5090407;28;19943;-76
2022/12/07 00:41:40;;;;;;;;;;;2.90;99.90;;;;;;5089722;28;19912;-75
2022/12/07 00:44:06;;;;;;;;;;;3.00;99.90;;;;;;5091374;28;20416;-76
2022/12/07 00:46:31;;;;;;;;;;;2.90;99.90;;;;;;5089726;28;20439;-75
2022/12/07 00:48:57;;;;;;;;;;;2.90;99.90;;;;;;5091099;28;19944;-76
2022/12/07 00:51:23;;;;;;;;;;;3.00;99.90;;;;;;5089519;28;19919;-76
2022/12/07 00:53:49;;;;;;;;;;;2.90;99.90;;;;;;5089691;28;19916;-76
2022/12/07 00:56:15;;;;;;;;;;;3.00;99.90;;;;;;5089941;28;20384;-76
2022/12/07 00:58:40;;;;;;;;;;;3.00;99.90;;;;;;5090749;28;19928;-76
2022/12/07 01:01:07;;;;;;;;;;;3.10;99.90;;;;;;5077342;28;19967;-76
2022/12/07 01:03:32;;;;;;;;;;;3.00;99.90;;;;;;5090676;28;19912;-75
2022/12/07 01:05:58;;;;;;;;;;;2.90;99.90;;;;;;5089821;28;19912;-76
2022/12/07 01:08:24;;;;;;;;;;;2.90;99.90;;;;;;5090772;28;19965;-76
2022/12/07 01:10:57;;;;;;;;;;;2.80;99.90;;;;;;5088647;28;19912;-76
2022/12/07 01:13:22;;;;;;;;;;;2.70;99.90;;;;;;5089279;28;19969;-76
2022/12/07 01:15:48;;;;;;;;;;;2.60;99.90;;;;;;5090092;28;19912;-76
2022/12/07 01:18:13;;;;;;;;;;;2.50;99.90;;;;;;5091030;28;19908;-76
2022/12/07 01:20:39;;;;;;;;;;;2.40;99.90;;;;;;5090926;28;19949;-76
2022/12/07 01:23:04;;;;;;;;;;;2.30;99.90;;;;;;5091339;28;20007;-76
2022/12/07 01:25:31;;;;;;;;;;;2.30;99.90;;;;;;5091022;28;19935;-75
2022/12/07 01:27:56;;;;;;;;;;;2.20;99.90;;;;;;5091187;28;20187;-76
2022/12/07 01:30:22;;;;;;;;;;;2.20;99.90;;;;;;5091009;28;20257;-76
2022/12/07 01:32:47;;;;;;;;;;;2.20;99.90;;;;;;5092044;28;19916;-76
2022/12/07 01:35:13;;;;;;;;;;;2.10;99.90;;;;;;5089534;28;19908;-76
2022/12/07 01:37:39;;;;;;;;;;;2.00;99.90;;;;;;5091811;28;19912;-76
2022/12/07 01:40:06;;;;;;;;;;;1.90;99.90;;;;;;5093010;28;20018;-76
2022/12/07 01:42:31;;;;;;;;;;;2.00;99.90;;;;;;5090952;28;19954;-76
2022/12/07 01:45:32;;;;;;;;;;;1.90;99.90;;;;;;5086957;28;19912;-76
2022/12/07 01:47:58;;;;;;;;;;;1.90;99.90;;;;;;5045100;28;20296;-76
2022/12/07 01:50:25;;;;;;;;;;;1.80;99.90;;;;;;5078399;28;20034;-76
2022/12/07 01:52:52;;;;;;;;;;;1.80;99.90;;;;;;5088081;28;19923;-76
2022/12/07 01:55:17;;;;;;;;;;;1.80;99.90;;;;;;5086837;28;19919;-75
2022/12/07 01:57:46;;;;;;;;;;;1.70;99.90;;;;;;5087557;28;19912;-76
2022/12/07 02:00:11;;;;;;;;;;;1.70;99.90;;;;;;5085665;28;20446;-76
2022/12/07 02:02:39;;;;;;;;;;;1.70;99.90;;;;;;5086712;28;19938;-76
2022/12/07 02:05:05;;;;;;;;;;;1.60;99.90;;;;;;5088489;28;19934;-76
2022/12/07 02:07:32;;;;;;;;;;;1.60;99.90;;;;;;5087463;28;19912;-76
2022/12/07 02:10:11;;;;;;;;;;;1.50;99.90;;;;;;5086965;28;20003;-76
2022/12/07 02:12:36;;;;;;;;;;;1.50;99.90;;;;;;5086711;28;19951;-76
2022/12/07 02:15:02;;;;;;;;;;;1.40;99.90;;;;;;5087847;28;20019;-76
2022/12/07 02:17:48;;;;;;;;;;;1.40;99.90;;;;;;5086699;28;19912;-76
2022/12/07 02:20:22;;;;;;;;;;;1.40;99.90;;;;;;5075372;28;19924;-76
2022/12/07 02:23:00;;;;;;;;;;;1.40;99.90;;;;;;5091067;28;19912;-77
2022/12/07 02:25:29;;;;;;;;;;;1.30;99.90;;;;;;5091232;28;19912;-75
2022/12/07 02:28:00;;;;;;;;;;;1.20;99.90;;;;;;5091073;28;19912;-77
2022/12/07 02:30:29;;;;;;;;;;;1.30;99.90;;;;;;5090503;28;19912;-77
2022/12/07 02:33:01;;;;;;;;;;;1.30;99.90;;;;;;5092154;28;19964;-75
2022/12/07 02:35:45;;;;;;;;;;;1.30;99.90;;;;;;5091136;28;19952;-76
2022/12/07 02:38:16;;;;;;;;;;;1.30;99.90;;;;;;5091220;28;19916;-76
2022/12/07 02:40:44;;;;;;;;;;;1.30;99.90;;;;;;5091540;28;19920;-77
2022/12/07 02:43:26;;;;;;;;;;;1.30;99.90;;;;;;5092448;28;19959;-76
2022/12/07 02:45:53;;;;;;;;;;;1.30;99.90;;;;;;5092062;28;19908;-76
2022/12/07 02:48:19;;;;;;;;;;;1.40;99.90;;;;;;5091281;28;19911;-77
2022/12/07 02:50:48;;;;;;;;;;;1.40;99.90;;;;;;5092322;28;19960;-76
2022/12/07 02:53:34;;;;;;;;;;;1.50;99.90;;;;;;5092770;28;19947;-76
2022/12/07 02:56:02;;;;;;;;;;;1.50;99.90;;;;;;5091438;28;19912;-76
2022/12/07 02:58:53;;;;;;;;;;;1.60;99.90;;;;;;5090314;28;19924;-75
2022/12/07 03:01:35;;;;;;;;;;;1.60;99.90;;;;;;5090926;28;20006;-76
2022/12/07 03:04:23;;;;;;;;;;;1.60;99.90;;;;;;5090750;28;20025;-76
2022/12/07 03:06:50;;;;;;;;;;;1.70;99.90;;;;;;5089656;28;19936;-76
2022/12/07 03:09:21;;;;;;;;;;;1.70;99.90;;;;;;5091966;28;19990;-75
2022/12/07 03:11:50;;;;;;;;;;;1.80;99.90;;;;;;5090902;28;20364;-76
2022/12/07 03:14:22;;;;;;;;;;;1.80;99.90;;;;;;5090415;28;19912;-76
2022/12/07 03:16:57;;;;;;;;;;;1.90;99.90;;;;;;5092553;28;19999;-76
2022/12/07 03:19:24;;;;;;;;;;;1.90;99.90;;;;;;5091140;28;19920;-75
2022/12/07 03:21:53;;;;;;;;;;;2.00;99.90;;;;;;5092396;28;19918;-75
2022/12/07 03:24:20;;;;;;;;;;;2.00;99.90;;;;;;5092836;28;20365;-75
2022/12/07 03:26:48;;;;;;;;;;;2.00;99.90;;;;;;5093319;28;19912;-76
2022/12/07 03:29:19;;;;;;;;;;;2.10;99.90;;;;;;5093401;28;19908;-76
2022/12/07 03:31:47;;;;;;;;;;;2.10;99.90;;;;;;5092182;28;19924;-76
2022/12/07 03:34:16;;;;;;;;;;;2.20;99.90;;;;;;5092127;28;19909;-76
2022/12/07 03:36:48;;;;;;;;;;;2.20;99.90;;;;;;5091691;28;19912;-76
2022/12/07 03:39:23;;;;;;;;;;;2.20;99.90;;;;;;5092351;28;19927;-77
2022/12/07 03:41:48;;;;;;;;;;;2.20;99.90;;;;;;5093178;28;19911;-76
2022/12/07 03:44:15;;;;;;;;;;;2.20;99.90;;;;;;5093151;28;19973;-76
2022/12/07 03:46:48;;;;;;;;;;;2.20;99.90;;;;;;5094094;28;19918;-76
2022/12/07 03:49:13;;;;;;;;;;;2.20;99.90;;;;;;5092057;28;20706;-76
2022/12/07 03:51:45;;;;;;;;;;;2.20;99.90;;;;;;5093231;28;20357;-76
2022/12/07 03:54:31;;;;;;;;;;;2.30;99.90;;;;;;5092845;28;19912;-76
2022/12/07 03:56:57;;;;;;;;;;;2.20;99.90;;;;;;5060648;28;19919;-75
2022/12/07 03:59:23;;;;;;;;;;;2.20;99.90;;;;;;5092062;28;20426;-77
2022/12/07 04:01:53;;;;;;;;;;;2.30;99.90;;;;;;5092741;28;19994;-76
2022/12/07 04:04:19;;;;;;;;;;;2.30;99.90;;;;;;5093263;28;20331;-76
2022/12/07 04:06:44;;;;;;;;;;;2.30;99.90;;;;;;5094981;28;19912;-76
2022/12/07 04:09:10;;;;;;;;;;;2.30;99.90;;;;;;5092267;28;20035;-76
2022/12/07 04:11:35;;;;;;;;;;;2.30;99.90;;;;;;5090248;28;19995;-76
2022/12/07 04:14:19;;;;;;;;;;;2.30;99.90;;;;;;5088137;28;19966;-76
2022/12/07 04:16:45;;;;;;;;;;;2.30;99.90;;;;;;5090740;28;19919;-76
2022/12/07 04:19:10;;;;;;;;;;;2.30;99.90;;;;;;5088726;28;19919;-76
2022/12/07 04:21:36;;;;;;;;;;;2.40;99.90;;;;;;5090349;28;20646;-76
2022/12/07 04:24:02;;;;;;;;;;;2.40;99.90;;;;;;5090531;28;19914;-76
2022/12/07 04:26:28;;;;;;;;;;;2.40;99.90;;;;;;5088944;28;20295;-76
2022/12/07 04:28:53;;;;;;;;;;;2.40;99.90;;;;;;5088217;28;19934;-76
2022/12/07 04:31:19;;;;;;;;;;;2.50;99.90;;;;;;5088533;28;20102;-75
2022/12/07 04:33:44;;;;;;;;;;;2.50;99.90;;;;;;5088752;28;19919;-75
2022/12/07 04:36:10;;;;;;;;;;;2.50;99.90;;;;;;5089659;28;20449;-75
2022/12/07 04:38:35;;;;;;;;;;;2.50;99.90;;;;;;5089124;28;19912;-76
2022/12/07 04:41:05;;;;;;;;;;;2.60;99.90;;;;;;5088641;28;20023;-76
2022/12/07 04:43:31;;;;;;;;;;;2.60;99.90;;;;;;5088735;28;19913;-76
2022/12/07 04:45:56;;;;;;;;;;;2.60;99.90;;;;;;5088115;28;19919;-76
2022/12/07 04:48:22;;;;;;;;;;;2.60;99.90;;;;;;5088563;28;20471;-76
2022/12/07 04:50:48;;;;;;;;;;;2.60;99.90;;;;;;5090431;28;19935;-76
2022/12/07 04:53:14;;;;;;;;;;;2.60;99.90;;;;;;5088310;28;19912;-76
2022/12/07 04:55:39;;;;;;;;;;;2.60;99.90;;;;;;5089441;28;20429;-76
2022/12/07 04:58:05;;;;;;;;;;;2.70;99.90;;;;;;5088780;28;19920;-77
2022/12/07 05:00:30;;;;;;;;;;;2.70;99.90;;;;;;5090578;28;19940;-75
2022/12/07 05:02:56;;;;;;;;;;;2.70;99.90;;;;;;5089083;28;19908;-77
2022/12/07 05:05:22;;;;;;;;;;;2.70;99.90;;;;;;5090483;28;20351;-76
2022/12/07 05:07:47;;;;;;;;;;;2.70;99.90;;;;;;5089019;28;19958;-75
2022/12/07 05:10:13;;;;;;;;;;;2.70;99.90;;;;;;5089862;28;19912;-76
2022/12/07 05:12:38;;;;;;;;;;;2.70;99.90;;;;;;5089983;28;20386;-76
2022/12/07 05:15:04;;;;;;;;;;;2.70;99.90;;;;;;5089421;28;19994;-77
2022/12/07 05:17:29;;;;;;;;;;;2.80;99.90;;;;;;5089883;28;20394;-76
2022/12/07 05:19:55;;;;;;;;;;;2.80;99.90;;;;;;5087734;28;19925;-76
2022/12/07 05:22:21;;;;;;;;;;;2.80;99.90;;;;;;5088646;28;19912;-77
2022/12/07 05:24:46;;;;;;;;;;;2.80;99.90;;;;;;5090767;28;19912;-77
2022/12/07 05:27:12;;;;;;;;;;;2.80;99.90;;;;;;5089237;28;19912;-77
2022/12/07 05:29:37;;;;;;;;;;;2.80;99.90;;;;;;5088248;28;19961;-76
2022/12/07 05:32:03;;;;;;;;;;;2.80;99.90;;;;;;5090548;28;19959;-77
2022/12/07 05:34:29;;;;;;;;;;;2.80;99.90;;;;;;5090979;28;19912;-77
2022/12/07 05:36:54;;;;;;;;;;;2.80;99.90;;;;;;5088676;28;19908;-77
2022/12/07 05:39:20;;;;;;;;;;;2.80;99.90;;;;;;5090161;28;19920;-76
2022/12/07 05:44:29;;;;;;;;;;;2.80;99.90;;;;;;5090532;28;19923;-77
2022/12/07 05:46:55;;;;;;;;;;;2.90;99.90;;;;;;5089192;28;19924;-77
2022/12/07 05:49:20;;;;;;;;;;;2.80;99.90;;;;;;5090925;28;19916;-77
2022/12/07 05:51:46;;;;;;;;;;;2.90;99.90;;;;;;5090157;28;19943;-77
2022/12/07 05:54:11;;;;;;;;;;;2.90;99.90;;;;;;5089983;28;20002;-77
2022/12/07 05:56:37;;;;;;;;;;;2.90;99.90;;;;;;5088085;28;19912;-76
2022/12/07 06:01:47;;;;;;;;;;;2.80;99.90;;;;;;5088924;28;19924;-75
2022/12/07 06:04:12;;;;;;;;;;;2.90;99.90;;;;;;5090261;28;19908;-77
2022/12/07 06:06:38;;;;;;;;;;;2.90;99.90;;;;;;5089126;28;19982;-76
2022/12/07 06:09:04;;;;;;;;;;;2.90;99.90;;;;;;5090760;28;19919;-76
2022/12/07 06:14:14;;;;;;;;;;;2.90;99.90;;;;;;5090547;28;19919;-76
2022/12/07 06:16:39;;;;;;;;;;;2.90;99.90;;;;;;5088753;28;19908;-77
2022/12/07 06:19:05;;;;;;;;;;;2.90;99.90;;;;;;5089832;28;20015;-75
2022/12/07 06:21:30;;;;;;;;;;;2.90;99.90;;;;;;5089927;28;19997;-74
2022/12/07 06:23:56;;;;;;;;;;;2.90;99.90;;;;;;5089208;28;20117;-75
2022/12/07 06:26:22;;;;;;;;;;;2.90;99.90;;;;;;5091135;28;19912;-76
2022/12/07 06:28:47;;;;;;;;;;;2.90;99.90;;;;;;5090205;28;20384;-76
2022/12/07 06:31:13;;;;;;;;;;;2.80;99.90;;;;;;5091494;28;19908;-76
2022/12/07 06:33:38;;;;;;;;;;;2.90;99.90;;;;;;5091482;28;19909;-76
2022/12/07 06:36:04;;;;;;;;;;;2.90;99.90;;;;;;5089478;28;20014;-75
2022/12/07 06:38:29;;;;;;;;;;;2.80;99.90;;;;;;5087553;28;20023;-75
2022/12/07 06:40:55;;;;;;;;;;;2.90;99.90;;;;;;5086189;28;20388;-76
2022/12/07 06:43:20;;;;;;;;;;;2.90;99.90;;;;;;5087903;28;19912;-75
2022/12/07 06:45:46;;;;;;;;;;;2.90;99.90;;;;;;5088087;28;19912;-76
2022/12/07 06:48:11;;;;;;;;;;;2.90;99.90;;;;;;5087355;28;20357;-76
2022/12/07 06:50:37;;;;;;;;;;;2.90;99.90;;;;;;5086548;28;19954;-75
2022/12/07 06:53:03;;;;;;;;;;;2.90;99.90;;;;;;5087910;28;19912;-75
2022/12/07 06:55:28;;;;;;;;;;;2.90;99.90;;;;;;5085501;28;19920;-76
2022/12/07 06:57:54;;;;;;;;;;;2.90;99.90;;;;;;5086231;28;20451;-76
2022/12/07 07:00:20;;;;;;;;;;;3.00;99.90;;;;;;5088319;28;19928;-74
2022/12/07 07:02:45;;;;;;;;;;;3.00;99.90;;;;;;5088235;28;19939;-76
2022/12/07 07:05:11;;;;;;;;;;;3.00;99.90;;;;;;5086779;28;20019;-76
2022/12/07 07:07:36;;;;;;;;;;;3.00;99.90;;;;;;5086301;28;19931;-76
2022/12/07 07:10:02;;;;;;;;;;;3.00;99.90;;;;;;5088575;28;20241;-75
2022/12/07 07:12:27;;;;;;;;;;;3.00;99.90;;;;;;5090370;28;19998;-75
2022/12/07 07:14:53;;;;;;;;;;;3.00;99.90;;;;;;5090864;28;19912;-75
2022/12/07 07:17:18;;;;;;;;;;;3.00;99.90;;;;;;5089632;28;19912;-76
2022/12/07 07:19:44;;;;;;;;;;;3.00;99.90;;;;;;5090313;28;19916;-76
2022/12/07 07:22:09;;;;;;;;;;;3.10;99.90;;;;;;5091725;28;19932;-75
2022/12/07 07:24:35;;;;;;;;;;;3.10;99.90;;;;;;5091681;28;20298;-76
2022/12/07 07:27:01;;;;;;;;;;;3.20;99.90;;;;;;5090360;28;20272;-75
2022/12/07 07:29:26;;;;;;;;;;;3.20;99.90;;;;;;5091462;28;19920;-75
2022/12/07 07:31:52;;;;;;;;;;;3.10;99.90;;;;;;5090240;28;19982;-75
2022/12/07 07:34:17;;;;;;;;;;;3.30;99.90;;;;;;5090841;28;19915;-76
2022/12/07 07:36:43;;;;;;;;;;;3.30;99.90;;;;;;5090165;28;19912;-76
2022/12/07 07:39:09;;;;;;;;;;;3.30;99.90;;;;;;5090251;28;19918;-76
2022/12/07 07:41:35;;;;;;;;;;;3.40;99.90;;;;;;5090264;28;19935;-76
2022/12/07 07:44:00;;;;;;;;;;;3.40;99.90;;;;;;5091111;28;20276;-76
2022/12/07 07:46:26;;;;;;;;;;;3.50;99.90;;;;;;5090959;28;20398;-76
2022/12/07 07:48:51;;;;;;;;;;;3.50;99.90;;;;;;5090030;28;20348;-76
2022/12/07 07:51:17;;;;;;;;;;;3.60;99.90;;;;;;5091411;28;20403;-76
2022/12/07 07:53:42;;;;;;;;;;;3.70;99.90;;;;;;5091753;28;20399;-76
2022/12/07 07:56:08;;;;;;;;;;;3.60;99.90;;;;;;5090077;28;19912;-77
2022/12/07 07:58:34;;;;;;;;;;;3.60;99.90;;;;;;5091438;28;19924;-76
2022/12/07 08:01:05;;;;;;;;;;;3.70;99.90;;;;;;5090689;28;19931;-75
2022/12/07 08:03:31;;;;;;;;;;;3.70;99.90;;;;;;5089625;28;19935;-76
2022/12/07 08:05:56;;;;;;;;;;;3.70;99.90;;;;;;5090724;28;20598;-76
2022/12/07 08:08:22;;;;;;;;;;;3.80;99.90;;;;;;5091255;28;19919;-76
2022/12/07 08:10:47;;;;;;;;;;;3.80;99.90;;;;;;5090556;28;19912;-76
2022/12/07 08:13:15;;;;;;;;;;;3.90;99.90;;;;;;5091235;28;20397;-77
2022/12/07 08:15:41;;;;;;;;;;;3.90;99.90;;;;;;5090253;28;20007;-76
2022/12/07 08:18:07;;;;;;;;;;;3.90;99.90;;;;;;5092413;28;19912;-76
2022/12/07 08:20:34;;;;;;;;;;;4.00;99.90;;;;;;5089331;28;19920;-77
2022/12/07 08:22:59;;;;;;;;;;;4.10;99.90;;;;;;5092768;28;19946;-76
2022/12/07 08:25:25;;;;;;;;;;;4.10;99.90;;;;;;5090291;28;19991;-77
2022/12/07 08:27:50;;;;;;;;;;;4.20;99.90;;;;;;5090815;28;19912;-77
2022/12/07 08:30:16;;;;;;;;;;;4.30;99.90;;;;;;5090164;28;19916;-76
2022/12/07 08:32:43;;;;;;;;;;;4.40;99.90;;;;;;5090450;28;19919;-76
2022/12/07 08:35:09;;;;;;;;;;;4.60;99.90;;;;;;5088908;28;20602;-75
2022/12/07 08:37:34;;;;;;;;;;;4.70;99.90;;;;;;5089175;28;19908;-76
2022/12/07 08:40:00;;;;;;;;;;;4.80;99.90;;;;;;5090230;28;20399;-76
2022/12/07 08:42:29;;;;;;;;;;;4.90;99.90;;;;;;5090771;28;19912;-76
2022/12/07 08:44:58;;;;;;;;;;;5.00;99.90;;;;;;5090421;28;19909;-76
2022/12/07 08:47:24;;;;;;;;;;;5.10;99.90;;;;;;5089928;28;19934;-75
2022/12/07 08:49:50;;;;;;;;;;;5.20;99.90;;;;;;5090557;28;19926;-76
2022/12/07 08:52:16;;;;;;;;;;;5.30;99.90;;;;;;5090218;28;19951;-76
2022/12/07 08:54:41;;;;;;;;;;;5.30;99.90;;;;;;5090956;28;19939;-77
2022/12/07 08:57:07;;;;;;;;;;;5.30;99.90;;;;;;5091052;28;19912;-76
2022/12/07 08:59:34;;;;;;;;;;;5.40;99.90;;;;;;5090888;28;19947;-75
2022/12/07 09:01:59;;;;;;;;;;;5.50;99.90;;;;;;5090797;28;19908;-76
2022/12/07 09:04:26;;;;;;;;;;;5.60;99.90;;;;;;5090114;28;20359;-76
2022/12/07 09:06:51;;;;;;;;;;;5.70;99.90;;;;;;5087765;28;19920;-76
2022/12/07 09:09:17;;;;;;;;;;;5.80;99.90;;;;;;5089340;28;19912;-76
2022/12/07 09:11:44;;;;;;;;;;;5.90;99.90;;;;;;5088893;28;19912;-76
2022/12/07 09:14:09;;;;;;;;;;;6.10;99.90;;;;;;5088598;28;19912;-76
2022/12/07 09:16:35;;;;;;;;;;;6.20;99.90;;;;;;5089506;28;19957;-77
2022/12/07 09:19:00;;;;;;;;;;;6.40;99.90;;;;;;5089003;28;19934;-77
2022/12/07 09:21:26;;;;;;;;;;;6.50;99.90;;;;;;5087861;28;19917;-77
2022/12/07 09:23:52;;;;;;;;;;;6.60;99.90;;;;;;5088755;28;20662;-76
2022/12/07 09:26:17;;;;;;;;;;;6.70;99.90;;;;;;5088580;28;20384;-76
2022/12/07 09:28:43;;;;;;;;;;;6.70;99.90;;;;;;5089044;28;20265;-76
2022/12/07 09:31:08;;;;;;;;;;;6.70;99.90;;;;;;5088249;28;19912;-76
2022/12/07 09:33:34;;;;;;;;;;;6.80;99.90;;;;;;5088195;28;19967;-76
2022/12/07 09:35:59;;;;;;;;;;;6.90;99.90;;;;;;5087747;28;19966;-76
2022/12/07 09:38:26;;;;;;;;;;;7.00;99.90;;;;;;5086630;28;20432;-77
2022/12/07 09:40:53;;;;;;;;;;;7.10;99.90;;;;;;5087376;28;19920;-76
2022/12/07 09:43:20;;;;;;;;;;;7.20;99.90;;;;;;5088285;28;19912;-76
2022/12/07 09:45:47;;;;;;;;;;;7.30;99.90;;;;;;5089133;28;19918;-76
2022/12/07 09:48:18;;;;;;;;;;;7.30;99.90;;;;;;5087248;28;19908;-76
2022/12/07 09:50:44;;;;;;;;;;;7.40;99.90;;;;;;5088999;28;19980;-76
2022/12/07 09:53:13;;;;;;;;;;;7.40;99.90;;;;;;5087268;28;19916;-76
2022/12/07 09:55:40;;;;;;;;;;;7.30;99.90;;;;;;5088572;28;19957;-76
2022/12/07 09:58:06;;;;;;;;;;;7.10;99.90;;;;;;5087449;28;19919;-76
2022/12/07 10:00:31;;;;;;;;;;;7.00;99.90;;;;;;5089318;28;19920;-76
2022/12/07 10:03:02;;;;;;;;;;;6.90;99.90;;;;;;5087802;28;20307;-76
2022/12/07 10:05:30;;;;;;;;;;;6.80;99.90;;;;;;5090568;28;19915;-77
2022/12/07 10:07:55;;;;;;;;;;;6.70;99.90;;;;;;5086894;28;19924;-77
2022/12/07 10:10:31;;;;;;;;;;;6.60;99.90;;;;;;5085620;28;19912;-77
2022/12/07 10:12:59;;;;;;;;;;;6.40;99.90;;;;;;5087700;28;19916;-77
2022/12/07 10:15:43;;;;;;;;;;;6.30;99.90;;;;;;5086712;28;20388;-77
2022/12/07 10:18:19;;;;;;;;;;;6.40;99.90;;;;;;5089352;28;19912;-76
2022/12/07 10:20:48;;;;;;;;;;;6.40;99.90;;;;;;5089262;28;19927;-76
2022/12/07 10:23:15;;;;;;;;;;;6.40;99.90;;;;;;5087570;28;19912;-76
2022/12/07 10:25:42;;;;;;;;;;;6.40;99.90;;;;;;5088674;28;20003;-76
2022/12/07 10:28:07;;;;;;;;;;;6.40;99.90;;;;;;5088929;28;20411;-76
2022/12/07 10:30:45;;;;;;;;;;;6.50;99.90;;;;;;5088102;28;19947;-76
2022/12/07 10:33:31;;;;;;;;;;;6.50;99.90;;;;;;5088343;28;19970;-77
2022/12/07 10:35:56;;;;;;;;;;;6.60;99.90;;;;;;5087532;28;20026;-76
2022/12/07 10:38:23;;;;;;;;;;;6.60;99.90;;;;;;5087345;28;19978;-77
2022/12/07 10:41:02;;;;;;;;;;;6.50;99.90;;;;;;5088407;28;19924;-76
2022/12/07 10:43:27;;;;;;;;;;;6.40;99.90;;;;;;5087608;28;20368;-77
2022/12/07 10:45:59;;;;;;;;;;;6.20;99.90;;;;;;5090927;28;19919;-76
2022/12/07 10:48:24;;;;;;;;;;;6.20;99.90;;;;;;5092350;28;19912;-77
2022/12/07 10:51:05;;;;;;;;;;;6.10;99.90;;;;;;5091202;28;20369;-77
2022/12/07 10:53:37;;;;;;;;;;;6.10;99.90;;;;;;5092723;28;19912;-77
2022/12/07 10:56:14;;;;;;;;;;;6.20;99.90;;;;;;5092943;28;20462;-76
2022/12/07 10:58:49;;;;;;;;;;;6.20;99.90;;;;;;5092517;28;19943;-77
2022/12/07 11:01:14;;;;;;;;;;;6.30;99.90;;;;;;5092822;28;19967;-77
2022/12/07 11:03:55;;;;;;;;;;;6.40;99.90;;;;;;5090872;28;19948;-77
2022/12/07 11:06:29;;;;;;;;;;;6.50;99.90;;;;;;5091360;28;19951;-77
2022/12/07 11:08:55;;;;;;;;;;;6.70;99.90;;;;;;5090537;28;19982;-76
2022/12/07 11:11:21;;;;;;;;;;;6.90;99.90;;;;;;5092265;28;20392;-76
2022/12/07 11:13:46;;;;;;;;;;;7.10;99.90;;;;;;5091152;28;19912;-76
2022/12/07 11:16:30;;;;;;;;;;;7.30;99.90;;;;;;5092781;28;19912;-76
2022/12/07 11:19:06;;;;;;;;;;;7.40;99.90;;;;;;5093230;28;20119;-77
2022/12/07 11:21:39;;;;;;;;;;;7.60;99.90;;;;;;5093500;28;19924;-76
2022/12/07 11:24:14;;;;;;;;;;;7.70;99.90;;;;;;5091995;28;19912;-77
2022/12/07 11:26:42;;;;;;;;;;;7.90;99.90;;;;;;5092955;28;19955;-76
2022/12/07 11:29:14;;;;;;;;;;;8.00;99.90;;;;;;5091744;28;19915;-76
2022/12/07 11:31:44;;;;;;;;;;;7.90;99.90;;;;;;5090401;28;19912;-77
2022/12/07 11:34:20;;;;;;;;;;;7.80;99.90;;;;;;5089650;28;19960;-77
2022/12/07 11:36:50;;;;;;;;;;;7.70;99.90;;;;;;5089416;28;19916;-76
2022/12/07 11:39:22;;;;;;;;;;;7.60;99.90;;;;;;5088995;28;20383;-77
2022/12/07 11:41:54;;;;;;;;;;;7.60;99.90;;;;;;5089241;28;19951;-76
2022/12/07 11:44:33;;;;;;;;;;;7.50;99.90;;;;;;5089196;28;20004;-77
2022/12/07 11:47:07;;;;;;;;;;;7.40;99.90;;;;;;5090039;28;19943;-76
2022/12/07 11:49:36;;;;;;;;;;;7.40;99.90;;;;;;5090950;28;20539;-77
2022/12/07 11:52:03;;;;;;;;;;;7.30;99.90;;;;;;5091207;28;20300;-76
2022/12/07 11:54:35;;;;;;;;;;;7.20;99.90;;;;;;5088715;28;19935;-76
2022/12/07 11:57:09;;;;;;;;;;;7.20;99.90;;;;;;5089931;28;19912;-77
2022/12/07 11:59:43;;;;;;;;;;;7.30;99.90;;;;;;5090648;28;19931;-77
2022/12/07 12:02:14;;;;;;;;;;;7.30;99.90;;;;;;5090642;28;20380;-76
2022/12/07 12:04:47;;;;;;;;;;;7.30;99.90;;;;;;5089105;28;20352;-77
2022/12/07 12:07:16;;;;;;;;;;;7.40;99.90;;;;;;5090696;28;19908;-77
2022/12/07 12:09:48;;;;;;;;;;;7.30;99.90;;;;;;5090671;28;19908;-77
2022/12/07 12:12:24;;;;;;;;;;;7.40;99.90;;;;;;5090722;28;19911;-76
2022/12/07 12:14:52;;;;;;;;;;;7.40;99.90;;;;;;5089258;28;20300;-77
2022/12/07 12:17:18;;;;;;;;;;;7.50;99.90;;;;;;5089461;28;19908;-76
2022/12/07 12:20:02;;;;;;;;;;;7.70;99.90;;;;;;5089825;28;19926;-77
2022/12/07 12:22:39;;;;;;;;;;;7.80;99.90;;;;;;5089783;28;19908;-77
2022/12/07 12:25:15;;;;;;;;;;;8.00;99.90;;;;;;5088584;28;19918;-77
2022/12/07 12:27:45;;;;;;;;;;;8.10;99.90;;;;;;5089163;28;20012;-76
2022/12/07 12:30:32;;;;;;;;;;;8.00;99.90;;;;;;5088312;28;20758;-77
2022/12/07 12:33:05;;;;;;;;;;;8.00;99.90;;;;;;5088811;28;19916;-77
2022/12/07 12:35:31;;;;;;;;;;;7.90;99.90;;;;;;5090940;28;19908;-77
2022/12/07 12:38:15;;;;;;;;;;;8.00;99.90;;;;;;5089989;28;19915;-79
2022/12/07 12:40:42;;;;;;;;;;;8.00;99.90;;;;;;5090641;28;19920;-77
2022/12/07 12:43:28;;;;;;;;;;;7.90;99.90;;;;;;5091226;28;20380;-76
2022/12/07 12:46:13;;;;;;;;;;;8.00;99.90;;;;;;5091570;28;20471;-77
2022/12/07 12:48:39;;;;;;;;;;;7.80;99.90;;;;;;5090484;28;19912;-77
2022/12/07 12:51:23;;;;;;;;;;;7.60;99.90;;;;;;5090016;28;19919;-76
2022/12/07 12:53:48;;;;;;;;;;;7.40;99.90;;;;;;5090520;28;19934;-76
2022/12/07 12:56:23;;;;;;;;;;;7.30;99.90;;;;;;5089347;28;20451;-77
2022/12/07 12:58:49;;;;;;;;;;;7.10;99.90;;;;;;5090547;28;19924;-77
2022/12/07 13:01:27;;;;;;;;;;;6.90;99.90;;;;;;5088957;28;19927;-76
2022/12/07 13:03:53;;;;;;;;;;;6.60;99.90;;;;;;5090493;28;19991;-77
2022/12/07 13:06:24;;;;;;;;;;;6.50;99.90;;;;;;5088792;28;20466;-77
2022/12/07 13:08:50;;;;;;;;;;;6.40;99.90;;;;;;5088892;28;19948;-77
2022/12/07 13:11:27;;;;;;;;;;;6.40;99.90;;;;;;5089729;28;19916;-75
2022/12/07 13:14:12;;;;;;;;;;;6.40;99.90;;;;;;5089565;28;19908;-76
2022/12/07 13:16:39;;;;;;;;;;;6.40;99.90;;;;;;5087336;28;20425;-77
2022/12/07 13:19:24;;;;;;;;;;;6.50;99.90;;;;;;5089871;28;19908;-77
2022/12/07 13:21:50;;;;;;;;;;;6.50;99.90;;;;;;5089960;28;19920;-76
2022/12/07 13:24:16;;;;;;;;;;;6.60;99.90;;;;;;5090093;28;20011;-76
2022/12/07 13:26:43;;;;;;;;;;;6.50;99.90;;;;;;5089253;28;19912;-76
2022/12/07 13:29:09;;;;;;;;;;;6.50;99.90;;;;;;5089103;28;19951;-75
2022/12/07 13:31:36;;;;;;;;;;;6.50;99.90;;;;;;5089335;28;19954;-78
2022/12/07 13:34:03;;;;;;;;;;;6.50;99.90;;;;;;5090109;28;19908;-77
2022/12/07 13:36:35;;;;;;;;;;;6.40;99.90;;;;;;5088516;28;19908;-77
2022/12/07 13:39:11;;;;;;;;;;;6.30;99.90;;;;;;5089653;28;19912;-76
2022/12/07 13:41:36;;;;;;;;;;;6.30;99.90;;;;;;5090438;28;19924;-76
2022/12/07 13:44:02;;;;;;;;;;;6.30;99.90;;;;;;5090429;28;20328;-78
2022/12/07 13:46:46;;;;;;;;;;;6.30;99.90;;;;;;5089777;28;19916;-78
2022/12/07 13:49:21;;;;;;;;;;;6.30;99.90;;;;;;5089038;28;19912;-78
2022/12/07 13:51:46;;;;;;;;;;;6.30;99.90;;;;;;5091073;28;19916;-78
2022/12/07 13:54:13;;;;;;;;;;;6.30;99.90;;;;;;5091715;28;19916;-76
2022/12/07 13:56:39;;;;;;;;;;;6.40;99.90;;;;;;5089679;28;19912;-75
2022/12/07 13:59:10;;;;;;;;;;;6.40;99.90;;;;;;5070273;28;19967;-75
2022/12/07 14:01:36;;;;;;;;;;;6.40;99.90;;;;;;5088037;28;19946;-76
2022/12/07 14:04:36;;;;;;;;;;;6.30;99.90;;;;;;5088215;28;20372;-76
2022/12/07 14:07:21;;;;;;;;;;;6.40;99.90;;;;;;5044739;28;19913;-76
2022/12/07 14:10:15;;;;;;;;;;;6.30;99.90;;;;;;5084929;28;19952;-77
2022/12/07 14:12:42;;;;;;;;;;;6.20;99.90;;;;;;5079135;28;20463;-76
2022/12/07 14:15:19;;;;;;;;;;;6.10;99.90;;;;;;5086463;28;20009;-76
2022/12/07 14:17:51;;;;;;;;;;;6.00;99.90;;;;;;5086807;28;20381;-76
2022/12/07 14:20:29;;;;;;;;;;;5.80;99.90;;;;;;5091901;28;19920;-75
2022/12/07 14:22:55;;;;;;;;;;;5.70;99.90;;;;;;5091541;28;19912;-77
2022/12/07 14:25:26;;;;;;;;;;;5.60;99.90;;;;;;5091858;28;19925;-76
2022/12/07 14:27:59;;;;;;;;;;;5.50;99.90;;;;;;5092120;28;19908;-75
2022/12/07 14:30:26;;;;;;;;;;;5.30;99.90;;;;;;5093233;28;19912;-77
2022/12/07 14:32:57;;;;;;;;;;;5.20;99.90;;;;;;5092523;28;20014;-78
2022/12/07 14:35:23;;;;;;;;;;;5.10;99.90;;;;;;5091722;28;20430;-75
2022/12/07 14:37:49;;;;;;;;;;;5.00;99.90;;;;;;5091911;28;19912;-78
2022/12/07 14:40:16;;;;;;;;;;;4.90;99.90;;;;;;5089361;28;20403;-75
2022/12/07 14:42:42;;;;;;;;;;;4.80;99.90;;;;;;5090402;28;19920;-76
2022/12/07 14:45:13;;;;;;;;;;;4.70;99.90;;;;;;5091513;28;19921;-76
2022/12/07 14:47:38;;;;;;;;;;;4.60;99.90;;;;;;5091956;28;20400;-76